sensor_id;sensor_type;location;lat;lon;timestamp;P1;durP1;ratioP1;P2;durP2;ratioP2
4182;SDS011;2105;52.300;9.182;2022-11-12T00:01:19;11.80;;;10.80;;
4182;SDS011;2105;52.300;9.182;2022-11-12T00:03:47;11.63;;;10.60;;
4182;SDS011;2105;52.300;9.182;2022-11-12T00:06:14;10.50;;;9.80;;
4182;SDS011;2105;52.300;9.182;2022-11-12T00:08:42;11.03;;;10.33;;
4182;SDS011;2105;52.300;9.182;2022-11-12T00:11:09;12.07;;;11.20;;
4182;SDS011;2105;52.300;9.182;2022-11-12T00:13:37;11.43;;;10.33;;
4182;SDS011;2105;52.300;9.182;2022-11-12T00:16:04;11.97;;;11.00;;
4182;SDS011;2105;52.300;9.182;2022-11-12T00:18:31;11.37;;;10.53;;
4182;SDS011;2105;52.300;9.182;2022-11-12T00:20:58;12.07;;;11.03;;
4182;SDS011;2105;52.300;9.182;2022-11-12T00:23:26;12.23;;;11.13;;
4182;SDS011;2105;52.300;9.182;2022-11-12T00:26:00;11.60;;;10.67;;
4182;SDS011;2105;52.300;9.182;2022-11-12T00:28:27;12.30;;;11.30;;
4182;SDS011;2105;52.300;9.182;2022-11-12T00:30:55;12.83;;;11.63;;
4182;SDS011;2105;52.300;9.182;2022-11-12T00:33:22;13.20;;;11.87;;
4182;SDS011;2105;52.300;9.182;2022-11-12T00:35:49;13.20;;;12.00;;
4182;SDS011;2105;52.300;9.182;2022-11-12T00:38:16;12.60;;;11.47;;
4182;SDS011;2105;52.300;9.182;2022-11-12T00:40:43;12.73;;;11.70;;
4182;SDS011;2105;52.300;9.182;2022-11-12T00:43:11;13.20;;;12.17;;
4182;SDS011;2105;52.300;9.182;2022-11-12T00:45:38;12.60;;;11.70;;
4182;SDS011;2105;52.300;9.182;2022-11-12T00:48:06;12.57;;;11.57;;
4182;SDS011;2105;52.300;9.182;2022-11-12T00:50:33;11.20;;;10.27;;
4182;SDS011;2105;52.300;9.182;2022-11-12T00:53:00;10.10;;;9.40;;
4182;SDS011;2105;52.300;9.182;2022-11-12T00:55:27;11.17;;;10.07;;
4182;SDS011;2105;52.300;9.182;2022-11-12T00:57:56;11.03;;;9.70;;
4182;SDS011;2105;52.300;9.182;2022-11-12T01:00:25;10.13;;;9.43;;
4182;SDS011;2105;52.300;9.182;2022-11-12T01:02:52;9.70;;;9.10;;
4182;SDS011;2105;52.300;9.182;2022-11-12T01:05:19;10.20;;;9.30;;
4182;SDS011;2105;52.300;9.182;2022-11-12T01:07:46;10.33;;;9.50;;
4182;SDS011;2105;52.300;9.182;2022-11-12T01:10:13;11.60;;;9.80;;
4182;SDS011;2105;52.300;9.182;2022-11-12T01:12:40;10.83;;;9.93;;
4182;SDS011;2105;52.300;9.182;2022-11-12T01:15:08;10.67;;;9.97;;
4182;SDS011;2105;52.300;9.182;2022-11-12T01:17:36;11.03;;;10.23;;
4182;SDS011;2105;52.300;9.182;2022-11-12T01:20:04;10.40;;;9.60;;
4182;SDS011;2105;52.300;9.182;2022-11-12T01:22:31;9.90;;;9.20;;
4182;SDS011;2105;52.300;9.182;2022-11-12T01:24:58;9.90;;;9.20;;
4182;SDS011;2105;52.300;9.182;2022-11-12T01:27:26;9.20;;;8.53;;
4182;SDS011;2105;52.300;9.182;2022-11-12T01:29:53;9.10;;;8.40;;
4182;SDS011;2105;52.300;9.182;2022-11-12T01:32:20;10.30;;;8.77;;
4182;SDS011;2105;52.300;9.182;2022-11-12T01:34:48;9.47;;;8.67;;
4182;SDS011;2105;52.300;9.182;2022-11-12T01:37:17;10.20;;;9.40;;
4182;SDS011;2105;52.300;9.182;2022-11-12T01:39:44;10.40;;;9.60;;
4182;SDS011;2105;52.300;9.182;2022-11-12T01:42:11;9.80;;;9.10;;
4182;SDS011;2105;52.300;9.182;2022-11-12T01:44:40;9.80;;;9.17;;
4182;SDS011;2105;52.300;9.182;2022-11-12T01:47:09;10.80;;;9.93;;
4182;SDS011;2105;52.300;9.182;2022-11-12T01:49:38;10.00;;;9.40;;
4182;SDS011;2105;52.300;9.182;2022-11-12T01:52:09;8.87;;;8.37;;
4182;SDS011;2105;52.300;9.182;2022-11-12T01:54:38;9.30;;;8.60;;
4182;SDS011;2105;52.300;9.182;2022-11-12T01:57:07;9.40;;;7.43;;
4182;SDS011;2105;52.300;9.182;2022-11-12T01:59:37;8.43;;;7.73;;
4182;SDS011;2105;52.300;9.182;2022-11-12T02:02:06;7.90;;;7.40;;
4182;SDS011;2105;52.300;9.182;2022-11-12T02:04:34;8.87;;;7.97;;
4182;SDS011;2105;52.300;9.182;2022-11-12T02:07:02;9.30;;;8.40;;
4182;SDS011;2105;52.300;9.182;2022-11-12T02:09:31;9.00;;;8.20;;
4182;SDS011;2105;52.300;9.182;2022-11-12T02:11:58;8.67;;;8.07;;
4182;SDS011;2105;52.300;9.182;2022-11-12T02:14:25;9.93;;;8.97;;
4182;SDS011;2105;52.300;9.182;2022-11-12T02:16:52;9.20;;;8.60;;
4182;SDS011;2105;52.300;9.182;2022-11-12T02:19:19;9.23;;;8.73;;
4182;SDS011;2105;52.300;9.182;2022-11-12T02:21:47;9.60;;;9.00;;
4182;SDS011;2105;52.300;9.182;2022-11-12T02:24:30;10.00;;;9.30;;
4182;SDS011;2105;52.300;9.182;2022-11-12T02:26:58;10.57;;;9.50;;
4182;SDS011;2105;52.300;9.182;2022-11-12T02:29:25;9.93;;;9.33;;
4182;SDS011;2105;52.300;9.182;2022-11-12T02:31:52;9.83;;;9.23;;
4182;SDS011;2105;52.300;9.182;2022-11-12T02:34:19;9.60;;;9.00;;
4182;SDS011;2105;52.300;9.182;2022-11-12T02:36:48;10.07;;;9.20;;
4182;SDS011;2105;52.300;9.182;2022-11-12T02:39:15;9.87;;;9.13;;
4182;SDS011;2105;52.300;9.182;2022-11-12T02:41:42;9.90;;;9.30;;
4182;SDS011;2105;52.300;9.182;2022-11-12T02:44:09;10.13;;;9.30;;
4182;SDS011;2105;52.300;9.182;2022-11-12T02:46:37;10.37;;;9.40;;
4182;SDS011;2105;52.300;9.182;2022-11-12T02:49:04;9.90;;;9.30;;
4182;SDS011;2105;52.300;9.182;2022-11-12T02:51:31;9.83;;;9.30;;
4182;SDS011;2105;52.300;9.182;2022-11-12T02:53:59;10.40;;;9.70;;
4182;SDS011;2105;52.300;9.182;2022-11-12T02:56:26;10.03;;;9.33;;
4182;SDS011;2105;52.300;9.182;2022-11-12T02:58:54;10.40;;;9.80;;
4182;SDS011;2105;52.300;9.182;2022-11-12T03:01:21;10.30;;;9.70;;
4182;SDS011;2105;52.300;9.182;2022-11-12T03:03:48;10.17;;;9.47;;
4182;SDS011;2105;52.300;9.182;2022-11-12T03:06:15;11.03;;;10.23;;
4182;SDS011;2105;52.300;9.182;2022-11-12T03:08:42;10.27;;;9.50;;
4182;SDS011;2105;52.300;9.182;2022-11-12T03:11:12;10.10;;;9.53;;
4182;SDS011;2105;52.300;9.182;2022-11-12T03:13:39;9.93;;;9.33;;
4182;SDS011;2105;52.300;9.182;2022-11-12T03:16:06;9.93;;;9.23;;
4182;SDS011;2105;52.300;9.182;2022-11-12T03:18:34;9.90;;;9.30;;
4182;SDS011;2105;52.300;9.182;2022-11-12T03:21:01;9.70;;;9.07;;
4182;SDS011;2105;52.300;9.182;2022-11-12T03:23:28;9.60;;;9.00;;
4182;SDS011;2105;52.300;9.182;2022-11-12T03:25:56;9.90;;;9.10;;
4182;SDS011;2105;52.300;9.182;2022-11-12T03:28:24;10.00;;;9.20;;
4182;SDS011;2105;52.300;9.182;2022-11-12T03:30:55;8.37;;;7.90;;
4182;SDS011;2105;52.300;9.182;2022-11-12T03:33:22;9.10;;;8.50;;
4182;SDS011;2105;52.300;9.182;2022-11-12T03:35:49;9.33;;;8.73;;
4182;SDS011;2105;52.300;9.182;2022-11-12T03:38:20;9.23;;;8.30;;
4182;SDS011;2105;52.300;9.182;2022-11-12T03:40:47;8.97;;;8.43;;
4182;SDS011;2105;52.300;9.182;2022-11-12T03:43:14;9.13;;;8.53;;
4182;SDS011;2105;52.300;9.182;2022-11-12T03:45:43;10.33;;;9.43;;
4182;SDS011;2105;52.300;9.182;2022-11-12T03:48:10;9.23;;;8.63;;
4182;SDS011;2105;52.300;9.182;2022-11-12T03:50:37;9.87;;;9.07;;
4182;SDS011;2105;52.300;9.182;2022-11-12T03:53:04;9.90;;;9.20;;
4182;SDS011;2105;52.300;9.182;2022-11-12T03:55:32;9.63;;;9.03;;
4182;SDS011;2105;52.300;9.182;2022-11-12T03:57:59;10.30;;;9.60;;
4182;SDS011;2105;52.300;9.182;2022-11-12T04:00:26;10.07;;;9.47;;
4182;SDS011;2105;52.300;9.182;2022-11-12T04:02:55;10.63;;;9.83;;
4182;SDS011;2105;52.300;9.182;2022-11-12T04:05:22;10.30;;;9.50;;
4182;SDS011;2105;52.300;9.182;2022-11-12T04:08:09;10.43;;;9.70;;
4182;SDS011;2105;52.300;9.182;2022-11-12T04:10:55;9.90;;;9.30;;
4182;SDS011;2105;52.300;9.182;2022-11-12T04:13:22;9.93;;;9.40;;
4182;SDS011;2105;52.300;9.182;2022-11-12T04:15:52;11.20;;;10.40;;
4182;SDS011;2105;52.300;9.182;2022-11-12T04:18:34;10.37;;;9.60;;
4182;SDS011;2105;52.300;9.182;2022-11-12T04:21:19;10.23;;;9.63;;
4182;SDS011;2105;52.300;9.182;2022-11-12T04:24:04;10.30;;;9.60;;
4182;SDS011;2105;52.300;9.182;2022-11-12T04:26:31;9.90;;;9.30;;
4182;SDS011;2105;52.300;9.182;2022-11-12T04:28:57;10.40;;;9.60;;
4182;SDS011;2105;52.300;9.182;2022-11-12T04:31:56;10.10;;;9.30;;
4182;SDS011;2105;52.300;9.182;2022-11-12T04:34:25;10.27;;;9.67;;
4182;SDS011;2105;52.300;9.182;2022-11-12T04:36:54;10.30;;;9.63;;
4182;SDS011;2105;52.300;9.182;2022-11-12T04:39:21;10.33;;;9.60;;
4182;SDS011;2105;52.300;9.182;2022-11-12T04:41:48;9.90;;;9.30;;
4182;SDS011;2105;52.300;9.182;2022-11-12T04:44:33;10.43;;;9.53;;
4182;SDS011;2105;52.300;9.182;2022-11-12T04:47:18;10.70;;;9.90;;
4182;SDS011;2105;52.300;9.182;2022-11-12T04:49:47;10.27;;;9.50;;
4182;SDS011;2105;52.300;9.182;2022-11-12T04:52:14;9.90;;;9.20;;
4182;SDS011;2105;52.300;9.182;2022-11-12T04:54:41;10.17;;;9.50;;
4182;SDS011;2105;52.300;9.182;2022-11-12T04:57:08;10.00;;;9.40;;
4182;SDS011;2105;52.300;9.182;2022-11-12T04:59:35;10.10;;;9.50;;
4182;SDS011;2105;52.300;9.182;2022-11-12T05:02:02;10.30;;;9.60;;
4182;SDS011;2105;52.300;9.182;2022-11-12T05:04:30;9.90;;;9.20;;
4182;SDS011;2105;52.300;9.182;2022-11-12T05:06:58;10.30;;;9.70;;
4182;SDS011;2105;52.300;9.182;2022-11-12T05:09:26;9.90;;;9.17;;
4182;SDS011;2105;52.300;9.182;2022-11-12T05:11:53;9.87;;;9.27;;
4182;SDS011;2105;52.300;9.182;2022-11-12T05:14:21;10.60;;;9.20;;
4182;SDS011;2105;52.300;9.182;2022-11-12T05:16:49;10.30;;;9.60;;
4182;SDS011;2105;52.300;9.182;2022-11-12T05:19:16;9.93;;;9.23;;
4182;SDS011;2105;52.300;9.182;2022-11-12T05:21:43;9.70;;;9.10;;
4182;SDS011;2105;52.300;9.182;2022-11-12T05:24:30;9.87;;;9.27;;
4182;SDS011;2105;52.300;9.182;2022-11-12T05:26:57;9.73;;;9.13;;
4182;SDS011;2105;52.300;9.182;2022-11-12T05:29:24;10.47;;;9.67;;
4182;SDS011;2105;52.300;9.182;2022-11-12T05:31:51;10.13;;;9.27;;
4182;SDS011;2105;52.300;9.182;2022-11-12T05:34:18;10.20;;;9.40;;
4182;SDS011;2105;52.300;9.182;2022-11-12T05:36:45;10.00;;;9.20;;
4182;SDS011;2105;52.300;9.182;2022-11-12T05:39:12;9.60;;;9.00;;
4182;SDS011;2105;52.300;9.182;2022-11-12T05:41:41;9.00;;;8.50;;
4182;SDS011;2105;52.300;9.182;2022-11-12T05:44:08;9.00;;;8.30;;
4182;SDS011;2105;52.300;9.182;2022-11-12T05:46:35;8.87;;;8.13;;
4182;SDS011;2105;52.300;9.182;2022-11-12T05:49:02;9.17;;;8.37;;
4182;SDS011;2105;52.300;9.182;2022-11-12T05:51:30;9.20;;;8.60;;
4182;SDS011;2105;52.300;9.182;2022-11-12T05:53:57;9.10;;;8.40;;
4182;SDS011;2105;52.300;9.182;2022-11-12T05:56:24;9.13;;;8.50;;
4182;SDS011;2105;52.300;9.182;2022-11-12T05:58:52;8.87;;;8.27;;
4182;SDS011;2105;52.300;9.182;2022-11-12T06:01:20;8.23;;;7.53;;
4182;SDS011;2105;52.300;9.182;2022-11-12T06:03:47;8.47;;;7.77;;
4182;SDS011;2105;52.300;9.182;2022-11-12T06:06:14;8.00;;;7.50;;
4182;SDS011;2105;52.300;9.182;2022-11-12T06:08:41;8.37;;;7.87;;
4182;SDS011;2105;52.300;9.182;2022-11-12T06:11:09;9.13;;;8.40;;
4182;SDS011;2105;52.300;9.182;2022-11-12T06:13:36;8.87;;;8.17;;
4182;SDS011;2105;52.300;9.182;2022-11-12T06:16:04;9.23;;;8.53;;
4182;SDS011;2105;52.300;9.182;2022-11-12T06:18:31;9.03;;;8.43;;
4182;SDS011;2105;52.300;9.182;2022-11-12T06:21:02;8.70;;;8.20;;
4182;SDS011;2105;52.300;9.182;2022-11-12T06:23:46;9.73;;;9.03;;
4182;SDS011;2105;52.300;9.182;2022-11-12T06:26:13;9.37;;;8.60;;
4182;SDS011;2105;52.300;9.182;2022-11-12T06:28:41;9.10;;;8.50;;
4182;SDS011;2105;52.300;9.182;2022-11-12T06:31:09;9.63;;;8.93;;
4182;SDS011;2105;52.300;9.182;2022-11-12T06:33:36;9.83;;;9.00;;
4182;SDS011;2105;52.300;9.182;2022-11-12T06:36:04;9.60;;;8.90;;
4182;SDS011;2105;52.300;9.182;2022-11-12T06:38:32;9.97;;;9.27;;
4182;SDS011;2105;52.300;9.182;2022-11-12T06:40:59;9.60;;;8.90;;
4182;SDS011;2105;52.300;9.182;2022-11-12T06:43:27;10.60;;;9.70;;
4182;SDS011;2105;52.300;9.182;2022-11-12T06:45:57;10.40;;;9.50;;
4182;SDS011;2105;52.300;9.182;2022-11-12T06:48:26;9.83;;;9.13;;
4182;SDS011;2105;52.300;9.182;2022-11-12T06:50:54;10.23;;;9.40;;
4182;SDS011;2105;52.300;9.182;2022-11-12T06:53:21;10.30;;;9.60;;
4182;SDS011;2105;52.300;9.182;2022-11-12T06:55:48;9.90;;;9.30;;
4182;SDS011;2105;52.300;9.182;2022-11-12T06:58:15;10.13;;;9.23;;
4182;SDS011;2105;52.300;9.182;2022-11-12T07:00:42;9.60;;;8.90;;
4182;SDS011;2105;52.300;9.182;2022-11-12T07:03:11;9.63;;;9.03;;
4182;SDS011;2105;52.300;9.182;2022-11-12T07:05:41;10.30;;;9.40;;
4182;SDS011;2105;52.300;9.182;2022-11-12T07:08:08;9.70;;;9.10;;
4182;SDS011;2105;52.300;9.182;2022-11-12T07:10:35;9.90;;;9.20;;
4182;SDS011;2105;52.300;9.182;2022-11-12T07:13:02;9.47;;;8.97;;
4182;SDS011;2105;52.300;9.182;2022-11-12T07:15:29;10.90;;;10.10;;
4182;SDS011;2105;52.300;9.182;2022-11-12T07:17:56;10.00;;;9.20;;
4182;SDS011;2105;52.300;9.182;2022-11-12T07:20:24;10.53;;;9.73;;
4182;SDS011;2105;52.300;9.182;2022-11-12T07:22:52;10.70;;;9.70;;
4182;SDS011;2105;52.300;9.182;2022-11-12T07:25:19;10.37;;;9.67;;
4182;SDS011;2105;52.300;9.182;2022-11-12T07:27:46;9.93;;;9.23;;
4182;SDS011;2105;52.300;9.182;2022-11-12T07:30:14;9.70;;;9.00;;
4182;SDS011;2105;52.300;9.182;2022-11-12T07:32:41;10.37;;;9.67;;
4182;SDS011;2105;52.300;9.182;2022-11-12T07:35:08;10.53;;;9.63;;
4182;SDS011;2105;52.300;9.182;2022-11-12T07:37:35;9.93;;;9.33;;
4182;SDS011;2105;52.300;9.182;2022-11-12T07:40:04;9.37;;;8.77;;
4182;SDS011;2105;52.300;9.182;2022-11-12T07:42:32;13.50;;;9.03;;
4182;SDS011;2105;52.300;9.182;2022-11-12T07:44:59;10.23;;;8.37;;
4182;SDS011;2105;52.300;9.182;2022-11-12T07:47:26;8.87;;;8.13;;
4182;SDS011;2105;52.300;9.182;2022-11-12T07:49:53;11.20;;;7.97;;
4182;SDS011;2105;52.300;9.182;2022-11-12T07:52:20;16.90;;;8.77;;
4182;SDS011;2105;52.300;9.182;2022-11-12T07:54:47;9.00;;;8.30;;
4182;SDS011;2105;52.300;9.182;2022-11-12T07:57:16;9.67;;;8.93;;
4182;SDS011;2105;52.300;9.182;2022-11-12T07:59:43;8.53;;;7.90;;
4182;SDS011;2105;52.300;9.182;2022-11-12T08:02:10;8.20;;;7.70;;
4182;SDS011;2105;52.300;9.182;2022-11-12T08:04:37;9.00;;;8.30;;
4182;SDS011;2105;52.300;9.182;2022-11-12T08:07:04;8.77;;;8.20;;
4182;SDS011;2105;52.300;9.182;2022-11-12T08:09:31;8.83;;;7.93;;
4182;SDS011;2105;52.300;9.182;2022-11-12T08:11:58;8.43;;;7.73;;
4182;SDS011;2105;52.300;9.182;2022-11-12T08:14:27;8.37;;;7.87;;
4182;SDS011;2105;52.300;9.182;2022-11-12T08:16:54;8.70;;;7.80;;
4182;SDS011;2105;52.300;9.182;2022-11-12T08:19:21;9.67;;;8.67;;
4182;SDS011;2105;52.300;9.182;2022-11-12T08:21:48;10.70;;;8.90;;
4182;SDS011;2105;52.300;9.182;2022-11-12T08:24:15;10.10;;;9.30;;
4182;SDS011;2105;52.300;9.182;2022-11-12T08:26:42;10.17;;;9.43;;
4182;SDS011;2105;52.300;9.182;2022-11-12T08:29:09;10.60;;;9.80;;
4182;SDS011;2105;52.300;9.182;2022-11-12T08:31:37;10.53;;;9.73;;
4182;SDS011;2105;52.300;9.182;2022-11-12T08:34:05;10.43;;;9.73;;
4182;SDS011;2105;52.300;9.182;2022-11-12T08:36:37;10.20;;;9.60;;
4182;SDS011;2105;52.300;9.182;2022-11-12T08:39:05;11.07;;;9.70;;
4182;SDS011;2105;52.300;9.182;2022-11-12T08:41:32;10.40;;;9.70;;
4182;SDS011;2105;52.300;9.182;2022-11-12T08:43:59;10.83;;;10.07;;
4182;SDS011;2105;52.300;9.182;2022-11-12T08:46:27;11.10;;;10.30;;
4182;SDS011;2105;52.300;9.182;2022-11-12T08:48:55;11.00;;;10.20;;
4182;SDS011;2105;52.300;9.182;2022-11-12T08:51:22;11.07;;;9.90;;
4182;SDS011;2105;52.300;9.182;2022-11-12T08:53:49;11.07;;;10.13;;
4182;SDS011;2105;52.300;9.182;2022-11-12T08:56:17;11.53;;;10.47;;
4182;SDS011;2105;52.300;9.182;2022-11-12T08:58:45;12.60;;;11.70;;
4182;SDS011;2105;52.300;9.182;2022-11-12T09:01:12;12.13;;;11.10;;
4182;SDS011;2105;52.300;9.182;2022-11-12T09:03:40;12.53;;;11.33;;
4182;SDS011;2105;52.300;9.182;2022-11-12T09:06:09;12.03;;;11.00;;
4182;SDS011;2105;52.300;9.182;2022-11-12T09:08:37;12.47;;;11.47;;
4182;SDS011;2105;52.300;9.182;2022-11-12T09:11:08;12.60;;;11.50;;
4182;SDS011;2105;52.300;9.182;2022-11-12T09:13:36;13.03;;;12.07;;
4182;SDS011;2105;52.300;9.182;2022-11-12T09:16:04;13.13;;;11.87;;
4182;SDS011;2105;52.300;9.182;2022-11-12T09:18:34;19.50;;;11.20;;
4182;SDS011;2105;52.300;9.182;2022-11-12T09:21:02;13.33;;;12.13;;
4182;SDS011;2105;52.300;9.182;2022-11-12T09:23:34;14.90;;;13.50;;
4182;SDS011;2105;52.300;9.182;2022-11-12T09:26:02;13.07;;;11.87;;
4182;SDS011;2105;52.300;9.182;2022-11-12T09:28:31;12.90;;;11.77;;
4182;SDS011;2105;52.300;9.182;2022-11-12T09:31:01;13.27;;;11.57;;
4182;SDS011;2105;52.300;9.182;2022-11-12T09:33:30;13.63;;;12.30;;
4182;SDS011;2105;52.300;9.182;2022-11-12T09:35:59;13.40;;;11.90;;
4182;SDS011;2105;52.300;9.182;2022-11-12T09:38:31;13.20;;;11.90;;
4182;SDS011;2105;52.300;9.182;2022-11-12T09:41:13;18.50;;;12.43;;
4182;SDS011;2105;52.300;9.182;2022-11-12T09:44:20;15.60;;;12.00;;
4182;SDS011;2105;52.300;9.182;2022-11-12T09:46:36;13.53;;;12.23;;
4182;SDS011;2105;52.300;9.182;2022-11-12T09:49:09;13.00;;;12.00;;
4182;SDS011;2105;52.300;9.182;2022-11-12T09:51:40;14.00;;;12.80;;
4182;SDS011;2105;52.300;9.182;2022-11-12T09:54:11;14.73;;;13.33;;
4182;SDS011;2105;52.300;9.182;2022-11-12T09:56:41;14.37;;;12.93;;
4182;SDS011;2105;52.300;9.182;2022-11-12T09:59:10;14.17;;;13.07;;
4182;SDS011;2105;52.300;9.182;2022-11-12T10:01:41;14.60;;;13.20;;
4182;SDS011;2105;52.300;9.182;2022-11-12T10:04:15;13.93;;;12.77;;
4182;SDS011;2105;52.300;9.182;2022-11-12T10:06:48;14.70;;;13.50;;
4182;SDS011;2105;52.300;9.182;2022-11-12T10:09:18;14.20;;;13.00;;
4182;SDS011;2105;52.300;9.182;2022-11-12T10:14:57;19.20;;;17.30;;
4182;SDS011;2105;52.300;9.182;2022-11-12T10:17:47;13.70;;;12.70;;
4182;SDS011;2105;52.300;9.182;2022-11-12T10:20:17;15.50;;;14.17;;
4182;SDS011;2105;52.300;9.182;2022-11-12T10:22:50;14.80;;;13.40;;
4182;SDS011;2105;52.300;9.182;2022-11-12T10:25:20;15.17;;;13.80;;
4182;SDS011;2105;52.300;9.182;2022-11-12T10:27:47;18.37;;;16.40;;
4182;SDS011;2105;52.300;9.182;2022-11-12T10:30:17;13.60;;;12.60;;
4182;SDS011;2105;52.300;9.182;2022-11-12T10:32:45;12.80;;;11.90;;
4182;SDS011;2105;52.300;9.182;2022-11-12T10:35:13;14.60;;;13.40;;
4182;SDS011;2105;52.300;9.182;2022-11-12T10:37:44;16.17;;;14.57;;
4182;SDS011;2105;52.300;9.182;2022-11-12T10:40:26;17.10;;;15.53;;
4182;SDS011;2105;52.300;9.182;2022-11-12T10:42:54;16.90;;;15.20;;
4182;SDS011;2105;52.300;9.182;2022-11-12T10:45:23;17.10;;;15.60;;
4182;SDS011;2105;52.300;9.182;2022-11-12T10:47:50;19.63;;;17.50;;
4182;SDS011;2105;52.300;9.182;2022-11-12T10:50:19;20.43;;;18.30;;
4182;SDS011;2105;52.300;9.182;2022-11-12T10:52:55;19.07;;;17.33;;
4182;SDS011;2105;52.300;9.182;2022-11-12T10:55:23;17.80;;;16.23;;
4182;SDS011;2105;52.300;9.182;2022-11-12T10:58:01;17.67;;;16.37;;
4182;SDS011;2105;52.300;9.182;2022-11-12T11:00:30;17.73;;;16.13;;
4182;SDS011;2105;52.300;9.182;2022-11-12T11:02:58;17.83;;;15.90;;
4182;SDS011;2105;52.300;9.182;2022-11-12T11:05:27;16.53;;;15.03;;
4182;SDS011;2105;52.300;9.182;2022-11-12T11:07:55;16.87;;;15.47;;
4182;SDS011;2105;52.300;9.182;2022-11-12T11:10:23;18.03;;;16.33;;
4182;SDS011;2105;52.300;9.182;2022-11-12T11:15:34;16.97;;;15.47;;
4182;SDS011;2105;52.300;9.182;2022-11-12T11:18:02;16.53;;;15.23;;
4182;SDS011;2105;52.300;9.182;2022-11-12T11:20:29;16.23;;;14.57;;
4182;SDS011;2105;52.300;9.182;2022-11-12T11:23:01;16.13;;;14.87;;
4182;SDS011;2105;52.300;9.182;2022-11-12T11:25:29;16.33;;;15.00;;
4182;SDS011;2105;52.300;9.182;2022-11-12T11:28:00;16.40;;;15.00;;
4182;SDS011;2105;52.300;9.182;2022-11-12T11:30:30;17.73;;;16.20;;
4182;SDS011;2105;52.300;9.182;2022-11-12T11:33:04;16.23;;;14.93;;
4182;SDS011;2105;52.300;9.182;2022-11-12T11:35:40;16.00;;;14.60;;
4182;SDS011;2105;52.300;9.182;2022-11-12T11:38:19;16.27;;;15.03;;
4182;SDS011;2105;52.300;9.182;2022-11-12T11:40:54;16.43;;;15.03;;
4182;SDS011;2105;52.300;9.182;2022-11-12T11:43:28;16.27;;;15.03;;
4182;SDS011;2105;52.300;9.182;2022-11-12T11:46:02;16.80;;;15.40;;
4182;SDS011;2105;52.300;9.182;2022-11-12T11:48:37;16.87;;;15.50;;
4182;SDS011;2105;52.300;9.182;2022-11-12T11:51:09;16.90;;;15.60;;
4182;SDS011;2105;52.300;9.182;2022-11-12T11:53:40;16.87;;;15.47;;
4182;SDS011;2105;52.300;9.182;2022-11-12T11:56:13;17.57;;;16.10;;
4182;SDS011;2105;52.300;9.182;2022-11-12T11:58:48;17.00;;;15.60;;
4182;SDS011;2105;52.300;9.182;2022-11-12T12:01:20;18.07;;;16.47;;
4182;SDS011;2105;52.300;9.182;2022-11-12T12:03:58;16.43;;;15.03;;
4182;SDS011;2105;52.300;9.182;2022-11-12T12:06:27;16.83;;;15.43;;
4182;SDS011;2105;52.300;9.182;2022-11-12T12:09:02;16.97;;;15.47;;
4182;SDS011;2105;52.300;9.182;2022-11-12T12:11:34;17.17;;;15.70;;
4182;SDS011;2105;52.300;9.182;2022-11-12T12:14:06;17.23;;;15.70;;
4182;SDS011;2105;52.300;9.182;2022-11-12T12:16:42;16.77;;;15.50;;
4182;SDS011;2105;52.300;9.182;2022-11-12T12:19:15;17.77;;;15.93;;
4182;SDS011;2105;52.300;9.182;2022-11-12T12:21:47;21.33;;;15.60;;
4182;SDS011;2105;52.300;9.182;2022-11-12T12:24:16;17.30;;;15.80;;
4182;SDS011;2105;52.300;9.182;2022-11-12T12:26:45;17.93;;;16.20;;
4182;SDS011;2105;52.300;9.182;2022-11-12T12:29:14;17.80;;;16.30;;
4182;SDS011;2105;52.300;9.182;2022-11-12T12:31:43;17.40;;;15.90;;
4182;SDS011;2105;52.300;9.182;2022-11-12T12:34:14;17.77;;;16.17;;
4182;SDS011;2105;52.300;9.182;2022-11-12T12:36:45;16.80;;;15.50;;
4182;SDS011;2105;52.300;9.182;2022-11-12T12:39:14;17.53;;;16.03;;
4182;SDS011;2105;52.300;9.182;2022-11-12T12:41:44;18.40;;;16.90;;
4182;SDS011;2105;52.300;9.182;2022-11-12T12:44:12;19.50;;;17.90;;
4182;SDS011;2105;52.300;9.182;2022-11-12T12:46:39;18.67;;;17.17;;
4182;SDS011;2105;52.300;9.182;2022-11-12T12:49:10;17.70;;;16.30;;
4182;SDS011;2105;52.300;9.182;2022-11-12T12:51:40;17.90;;;16.40;;
4182;SDS011;2105;52.300;9.182;2022-11-12T12:56:53;17.83;;;16.27;;
4182;SDS011;2105;52.300;9.182;2022-11-12T12:59:21;18.00;;;16.17;;
4182;SDS011;2105;52.300;9.182;2022-11-12T13:01:58;18.23;;;16.70;;
4182;SDS011;2105;52.300;9.182;2022-11-12T13:04:48;17.60;;;16.20;;
4182;SDS011;2105;52.300;9.182;2022-11-12T13:07:17;17.70;;;16.30;;
4182;SDS011;2105;52.300;9.182;2022-11-12T13:09:44;18.40;;;16.60;;
4182;SDS011;2105;52.300;9.182;2022-11-12T13:12:11;18.20;;;16.60;;
4182;SDS011;2105;52.300;9.182;2022-11-12T13:14:51;18.30;;;16.80;;
4182;SDS011;2105;52.300;9.182;2022-11-12T13:25:52;22.17;;;19.77;;
4182;SDS011;2105;52.300;9.182;2022-11-12T13:31:26;17.93;;;16.23;;
4182;SDS011;2105;52.300;9.182;2022-11-12T13:33:53;17.83;;;16.30;;
4182;SDS011;2105;52.300;9.182;2022-11-12T13:36:24;18.80;;;17.10;;
4182;SDS011;2105;52.300;9.182;2022-11-12T13:38:52;18.80;;;17.10;;
4182;SDS011;2105;52.300;9.182;2022-11-12T13:41:21;18.37;;;16.77;;
4182;SDS011;2105;52.300;9.182;2022-11-12T13:44:03;18.43;;;16.63;;
4182;SDS011;2105;52.300;9.182;2022-11-12T13:46:32;18.03;;;16.33;;
4182;SDS011;2105;52.300;9.182;2022-11-12T13:49:00;18.67;;;16.73;;
4182;SDS011;2105;52.300;9.182;2022-11-12T13:51:33;18.70;;;17.10;;
4182;SDS011;2105;52.300;9.182;2022-11-12T13:54:01;18.37;;;16.67;;
4182;SDS011;2105;52.300;9.182;2022-11-12T13:56:31;19.10;;;17.40;;
4182;SDS011;2105;52.300;9.182;2022-11-12T13:59:07;19.37;;;17.67;;
4182;SDS011;2105;52.300;9.182;2022-11-12T14:01:34;19.33;;;17.50;;
4182;SDS011;2105;52.300;9.182;2022-11-12T14:04:01;19.93;;;17.97;;
4182;SDS011;2105;52.300;9.182;2022-11-12T14:06:30;33.60;;;17.90;;
4182;SDS011;2105;52.300;9.182;2022-11-12T14:09:04;17.23;;;15.73;;
4182;SDS011;2105;52.300;9.182;2022-11-12T14:11:43;16.00;;;14.70;;
4182;SDS011;2105;52.300;9.182;2022-11-12T14:14:17;17.00;;;15.53;;
4182;SDS011;2105;52.300;9.182;2022-11-12T14:16:49;16.10;;;14.70;;
4182;SDS011;2105;52.300;9.182;2022-11-12T14:19:38;15.73;;;14.20;;
4182;SDS011;2105;52.300;9.182;2022-11-12T14:22:11;15.87;;;14.50;;
4182;SDS011;2105;52.300;9.182;2022-11-12T14:24:39;17.40;;;13.77;;
4182;SDS011;2105;52.300;9.182;2022-11-12T14:27:21;17.10;;;15.13;;
4182;SDS011;2105;52.300;9.182;2022-11-12T14:29:48;15.63;;;14.33;;
4182;SDS011;2105;52.300;9.182;2022-11-12T14:32:16;15.47;;;14.10;;
4182;SDS011;2105;52.300;9.182;2022-11-12T14:34:43;15.90;;;14.70;;
4182;SDS011;2105;52.300;9.182;2022-11-12T14:37:14;16.43;;;14.60;;
4182;SDS011;2105;52.300;9.182;2022-11-12T14:39:46;16.93;;;15.30;;
4182;SDS011;2105;52.300;9.182;2022-11-12T14:42:13;16.80;;;14.40;;
4182;SDS011;2105;52.300;9.182;2022-11-12T14:44:42;15.50;;;14.10;;
4182;SDS011;2105;52.300;9.182;2022-11-12T14:47:09;16.20;;;14.60;;
4182;SDS011;2105;52.300;9.182;2022-11-12T14:49:37;17.00;;;15.20;;
4182;SDS011;2105;52.300;9.182;2022-11-12T14:52:08;16.57;;;14.97;;
4182;SDS011;2105;52.300;9.182;2022-11-12T14:54:39;15.80;;;14.20;;
4182;SDS011;2105;52.300;9.182;2022-11-12T14:57:08;18.80;;;16.83;;
4182;SDS011;2105;52.300;9.182;2022-11-12T14:59:39;15.20;;;13.70;;
4182;SDS011;2105;52.300;9.182;2022-11-12T15:02:10;16.83;;;13.73;;
4182;SDS011;2105;52.300;9.182;2022-11-12T15:04:40;15.60;;;14.00;;
4182;SDS011;2105;52.300;9.182;2022-11-12T15:07:21;15.40;;;13.80;;
4182;SDS011;2105;52.300;9.182;2022-11-12T15:09:48;16.13;;;14.63;;
4182;SDS011;2105;52.300;9.182;2022-11-12T15:12:18;15.30;;;13.63;;
4182;SDS011;2105;52.300;9.182;2022-11-12T15:14:46;15.73;;;13.50;;
4182;SDS011;2105;52.300;9.182;2022-11-12T15:17:24;15.53;;;14.10;;
4182;SDS011;2105;52.300;9.182;2022-11-12T15:19:53;15.30;;;13.70;;
4182;SDS011;2105;52.300;9.182;2022-11-12T15:22:25;15.23;;;13.80;;
4182;SDS011;2105;52.300;9.182;2022-11-12T15:24:53;14.63;;;13.23;;
4182;SDS011;2105;52.300;9.182;2022-11-12T15:27:26;16.87;;;13.87;;
4182;SDS011;2105;52.300;9.182;2022-11-12T15:30:07;14.90;;;13.50;;
4182;SDS011;2105;52.300;9.182;2022-11-12T15:32:35;16.87;;;13.30;;